WetterOnline ( https://www.wetteronline.de )

Wetter aktuell Schleswig

Aktuelles Wetter: Schleswig (48m)

6-stündlich | Neueste Meldungen
Ortszeit Temperatur Wetter
Mo, 04.07. 2:00 13.8° C leicht bewölkt
So, 03.07. 20:00 18.2° C bewölkt
So, 03.07. 14:00 24.2° C wolkig
So, 03.07. 8:00 18.4° C wolkig
So, 03.07. 2:00 17.7° C bedeckt
Sa, 02.07. 20:00 20.2° C leicht bewölkt
Sa, 02.07. 14:00 22.3° C leicht bewölkt
Sa, 02.07. 8:00 15.9° C wolkenlos
Ortszeit Temperatur Wetter
Mo, 04.07. 7:00 14.0° C leicht bewölkt
Mo, 04.07. 6:50 14.0° C leicht bewölkt
Mo, 04.07. 6:40 14.0° C leicht bewölkt
Mo, 04.07. 6:30 13.3° C leicht bewölkt
Mo, 04.07. 6:20 13.3° C leicht bewölkt
Mo, 04.07. 6:10 13.3° C leicht bewölkt
Mo, 04.07. 6:00 13.4° C wolkig
Mo, 04.07. 5:30 13.0° C bewölkt
Mo, 04.07. 5:00 12.2° C leicht bewölkt
Mo, 04.07. 4:30 12.5° C leicht bewölkt
Mo, 04.07. 4:00 13.0° C wolkig
Ortszeit Relative Feuchte Sichtweite
Mo, 04.07. 2:00 97% 6 km
So, 03.07. 20:00 74% 55 km
So, 03.07. 14:00 50% 45 km
So, 03.07. 8:00 70% 55 km
So, 03.07. 2:00 80% 50 km
Sa, 02.07. 20:00 53% 55 km
Sa, 02.07. 14:00 47% 60 km
Sa, 02.07. 8:00 80% 35 km
Ortszeit Relative Feuchte Sichtweite
Mo, 04.07. 7:00 92% 30 km
Mo, 04.07. 6:50 92% -
Mo, 04.07. 6:40 92% -
Mo, 04.07. 6:30 94% 30 km
Mo, 04.07. 6:20 94% -
Mo, 04.07. 6:10 94% -
Mo, 04.07. 6:00 94% 35 km
Mo, 04.07. 5:30 96% 24 km
Mo, 04.07. 5:00 97% 18 km
Mo, 04.07. 4:30 96% 22 km
Mo, 04.07. 4:00 96% 25 km
Ortszeit Niederschlagsmenge Niederschlagsart
Mo, 04.07. 2:00 8 l/m2 in 6 Std. Regen
So, 03.07. 20:00 0.1 l/m2 in 12 Std. Regen
So, 03.07. 14:00 0.0 l/m2 in 6 Std. -
So, 03.07. 8:00 0.1 l/m2 in 12 Std. Regen
So, 03.07. 2:00 0.1 l/m2 in 6 Std. Regen
Sa, 02.07. 20:00 0.1 l/m2 in 12 Std. -
Sa, 02.07. 14:00 0.1 l/m2 in 6 Std. Niederschlag
Sa, 02.07. 8:00 0.0 l/m2 in 12 Std. -
Ortszeit Niederschlagsmenge Niederschlagsart
Mo, 04.07. 7:00 0.0 l/m2 in 1 Std. -
Mo, 04.07. 6:50 keine Meldung -
Mo, 04.07. 6:40 keine Meldung -
Mo, 04.07. 6:30 0.0 l/m2 in 1 Std. -
Mo, 04.07. 6:20 keine Meldung -
Mo, 04.07. 6:10 keine Meldung -
Mo, 04.07. 6:00 0.1 l/m2 in 1 Std. Regen
Mo, 04.07. 5:30 0.1 l/m2 in 1 Std. Schnee
Mo, 04.07. 5:00 0.0 l/m2 in 1 Std. -
Mo, 04.07. 4:30 0.0 l/m2 in 1 Std. -
Mo, 04.07. 4:00 0.0 l/m2 in 1 Std. -
Ortszeit Stärke Spitze Richtung
km/h Bft. km/h Grad Sektor
Mo, 04.07. 2:00 7 2 40 260° W
So, 03.07. 20:00 6 1 41 180° S
So, 03.07. 14:00 7 2 18 260° W
So, 03.07. 8:00 6 1 17 200° S
So, 03.07. 2:00 7 2 18 80° O
Sa, 02.07. 20:00 7 2 43 300° NW
Sa, 02.07. 14:00 17 3 44 240° SW
Sa, 02.07. 8:00 9 2 17 200° S
Ortszeit Stärke Spitze Richtung
km/h Bft. km/h Grad Sektor
Mo, 04.07. 7:00 6 1 11 220° SW
Mo, 04.07. 6:50 6 1 - 220° SW
Mo, 04.07. 6:40 6 1 - 220° SW
Mo, 04.07. 6:30 6 1 9 220° SW
Mo, 04.07. 6:20 6 1 - 220° SW
Mo, 04.07. 6:10 6 1 - 220° SW
Mo, 04.07. 6:00 4 1 11 230° SW
Mo, 04.07. 5:30 6 1 11 240° SW
Mo, 04.07. 5:00 4 1 11 230° SW
Mo, 04.07. 4:30 6 1 13 240° SW
Mo, 04.07. 4:00 7 2 11 250° W
Ortszeit Untergrenze Bedeckung Gattung
total tief tief mittel hoch
Mo, 04.07. 2:00 600 m 2/8 1/8 - - -
So, 03.07. 20:00 1800 m 8/8 7/8 - - -
So, 03.07. 14:00 2100 m 5/8 5/8 - - -
So, 03.07. 8:00 2400 m 8/8 1/8 - - -
So, 03.07. 2:00 2100 m 8/8 8/8 - - -
Sa, 02.07. 20:00 2100 m 5/8 1/8 - - -
Sa, 02.07. 14:00 1500 m 6/8 1/8 - - -
Sa, 02.07. 8:00 - 0/8 0/8 - - -
Ortszeit Bedeckungsgrad in Achtel und Wolkenuntergrenze
Mo, 04.07. 7:00 4(660m)
Mo, 04.07. 6:50 4(660m)
Mo, 04.07. 6:40 4
Mo, 04.07. 6:30 3(690m)
Mo, 04.07. 6:20 3(690m)
Mo, 04.07. 6:10 4
Mo, 04.07. 6:00 2(720m) 5(1080m) 5(1500m)
Mo, 04.07. 5:30 2(720m) 7(1500m) 7(1800m)
Mo, 04.07. 5:00 1(1350m)
Mo, 04.07. 4:30 2(1500m)
Mo, 04.07. 4:00 1(870m) 4(1410m) 6(1500m)
Ortszeit Luftdruck NN (hPa) Tendenz (hPa in 3 Std.)
Mo, 04.07. 2:00 1017 + 0,3
So, 03.07. 20:00 1017 + 1,1
So, 03.07. 14:00 1017 - 0,1
So, 03.07. 8:00 1016 - 0,1
So, 03.07. 2:00 1019 - 1,5
Sa, 02.07. 20:00 1021 - 0,6
Sa, 02.07. 14:00 1022 - 0,2
Sa, 02.07. 8:00 1021 + 0,9
Ortszeit Luftdruck NN (hPa) Tendenz (hPa in 3 Std.)
Mo, 04.07. 7:00 1017 + 0,5
Mo, 04.07. 6:50 1017 keine Meldung
Mo, 04.07. 6:40 1017 keine Meldung
Mo, 04.07. 6:30 1017 + 0,5
Mo, 04.07. 6:20 1017 keine Meldung
Mo, 04.07. 6:10 1017 keine Meldung
Mo, 04.07. 6:00 1017 + 0,4
Mo, 04.07. 5:30 1017 + 0,2
Mo, 04.07. 5:00 1017 - 0,2
Mo, 04.07. 4:30 1017 - 0,1
Mo, 04.07. 4:00 1017 - 0,3
Ortszeit Schneehöhe (cm)
Mo, 04.07. 2:00 0
So, 03.07. 20:00 0
So, 03.07. 14:00 0
So, 03.07. 8:00 0
So, 03.07. 2:00 0
Sa, 02.07. 20:00 0
Sa, 02.07. 14:00 0
Sa, 02.07. 8:00 0
Ortszeit Schneehöhe (cm)
Mo, 04.07. 7:00 0
Mo, 04.07. 6:50 0
Mo, 04.07. 6:40 0
Mo, 04.07. 6:30 0
Mo, 04.07. 6:20 0
Mo, 04.07. 6:10 0
Mo, 04.07. 6:00 0
Mo, 04.07. 5:30 0
Mo, 04.07. 5:00 0
Mo, 04.07. 4:30 0
Mo, 04.07. 4:00 0
Link zu dieser Seite / Seite empfehlen

Das Wetter in ...